Time;durP1;ratioP1;P1;durP2;ratioP2;P2;SDS_P1;SDS_P2;PMS_P1;PMS_P2;Temp;Humidity;BMP_temperature;BMP_pressure;BME280_temperature;BME280_humidity;BME280_pressure;Samples;Min_cycle;Max_cycle;Signal;HPM_P1;HPM_P2
2023/07/13 00:00:25;;;;;;;7.68;2.17;;;;;;;15.46;73.74;101245.59;5025861;28;20025;-73
2023/07/13 00:02:53;;;;;;;6.57;2.15;;;;;;;15.44;73.54;101247.53;5036896;28;20091;-77
2023/07/13 00:05:20;;;;;;;6.53;2.40;;;;;;;15.45;73.98;101246.56;5032012;28;20048;-74
2023/07/13 00:07:46;;;;;;;4.95;2.30;;;;;;;15.40;74.70;101248.69;5028602;28;20031;-74
2023/07/13 00:10:11;;;;;;;6.07;2.63;;;;;;;15.41;74.36;101245.91;5029598;28;20021;-76
2023/07/13 00:12:37;;;;;;;3.63;2.10;;;;;;;15.39;74.76;101246.97;5035539;28;20036;-70
2023/07/13 00:15:22;;;;;;;5.72;2.72;;;;;;;15.35;75.21;101238.28;5038730;28;20258;-78
2023/07/13 00:17:53;;;;;;;4.72;1.98;;;;;;;15.41;74.92;101242.38;5040267;28;20262;-68
2023/07/13 00:20:24;;;;;;;4.78;2.17;;;;;;;15.35;75.57;101249.00;5040485;28;20153;-74
2023/07/13 00:22:52;;;;;;;5.18;2.45;;;;;;;15.35;75.59;101257.03;5033848;28;20017;-75
2023/07/13 00:25:18;;;;;;;5.45;1.95;;;;;;;15.32;75.52;101251.00;5040288;28;20029;-67
2023/07/13 00:27:43;;;;;;;6.57;2.00;;;;;;;15.25;75.89;101247.84;5026021;28;20040;-74
2023/07/13 00:30:10;;;;;;;8.15;2.10;;;;;;;15.19;76.37;101240.22;5029745;28;20520;-76
2023/07/13 00:32:37;;;;;;;4.22;1.88;;;;;;;15.16;76.62;101240.41;5025033;28;20032;-75
2023/07/13 00:35:04;;;;;;;6.28;2.72;;;;;;;15.10;76.98;101243.47;5025680;28;20111;-74
2023/07/13 00:37:30;;;;;;;5.30;1.98;;;;;;;15.11;77.25;101247.88;5037777;28;20040;-73
2023/07/13 00:39:55;;;;;;;5.43;2.30;;;;;;;15.09;77.34;101236.38;5044111;28;20253;-78
2023/07/13 00:42:21;;;;;;;4.70;2.10;;;;;;;15.04;77.84;101243.84;5032179;28;20116;-73
2023/07/13 00:45:03;;;;;;;4.32;2.33;;;;;;;15.06;77.22;101244.63;5038052;28;20029;-76
2023/07/13 00:47:28;;;;;;;5.30;2.05;;;;;;;14.98;78.46;101246.94;5040618;28;20506;-71
2023/07/13 00:49:54;;;;;;;5.10;2.20;;;;;;;14.91;79.23;101255.34;5035952;28;20048;-78
2023/07/13 00:52:19;;;;;;;5.90;2.10;;;;;;;14.91;78.56;101244.63;5047359;28;20044;-68
2023/07/13 00:54:46;;;;;;;4.75;2.15;;;;;;;14.97;79.33;101255.94;5038411;28;20036;-75
2023/07/13 00:57:18;;;;;;;6.63;2.03;;;;;;;14.90;79.78;101250.09;5025034;28;20021;-73
2023/07/13 00:59:51;;;;;;;5.22;2.15;;;;;;;14.95;79.83;101256.00;5039198;28;20101;-78
2023/07/13 01:02:17;;;;;;;5.00;2.20;;;;;;;14.87;80.59;101248.44;5029206;28;20033;-77
2023/07/13 01:04:43;;;;;;;7.90;2.30;;;;;;;14.95;80.28;101256.88;5029823;28;20024;-70
2023/07/13 01:07:11;;;;;;;6.05;2.35;;;;;;;14.95;80.17;101256.00;5033022;28;20040;-77
2023/07/13 01:09:37;;;;;;;5.07;1.70;;;;;;;14.91;80.94;101258.03;5022902;28;20057;-77
2023/07/13 01:12:03;;;;;;;6.15;2.05;;;;;;;14.86;81.43;101253.91;5040224;28;20086;-76
2023/07/13 01:14:28;;;;;;;5.32;2.47;;;;;;;14.83;81.19;101260.31;5040067;28;20414;-72
2023/07/13 01:16:54;;;;;;;4.25;2.40;;;;;;;14.79;81.19;101258.78;5040579;28;20032;-75
2023/07/13 01:19:37;;;;;;;5.10;2.38;;;;;;;14.84;80.88;101264.75;5028502;28;20025;-78
2023/07/13 01:22:08;;;;;;;6.07;2.65;;;;;;;14.77;82.31;101266.06;5031609;28;20079;-74
2023/07/13 01:24:38;;;;;;;7.65;2.50;;;;;;;14.79;82.29;101265.97;5032457;28;20489;-71
2023/07/13 01:27:05;;;;;;;6.40;2.53;;;;;;;14.75;82.92;101259.94;5031926;28;20029;-76
2023/07/13 01:29:33;;;;;;;6.38;2.30;;;;;;;14.74;82.49;101260.88;5026727;28;20396;-77
2023/07/13 01:32:00;;;;;;;4.97;2.30;;;;;;;14.73;82.94;101252.97;5034338;28;20099;-72
2023/07/13 01:34:26;;;;;;;7.05;2.47;;;;;;;14.69;83.36;101258.50;5027138;28;20109;-76
2023/07/13 01:36:53;;;;;;;5.05;2.40;;;;;;;14.74;83.64;101254.66;5034631;28;20115;-71
2023/07/13 01:39:22;;;;;;;5.88;2.33;;;;;;;14.74;83.41;101257.34;5041585;28;20020;-69
2023/07/13 01:41:49;;;;;;;6.20;2.35;;;;;;;14.64;83.91;101249.03;5029084;28;20110;-76
2023/07/13 01:44:14;;;;;;;7.35;2.70;;;;;;;14.66;84.58;101263.19;5037818;28;20258;-78
2023/07/13 01:46:40;;;;;;;7.13;2.30;;;;;;;14.63;84.48;101263.34;5029817;28;20262;-75
2023/07/13 01:49:05;;;;;;;4.40;2.53;;;;;;;14.55;84.68;101246.91;5038932;28;20071;-70
2023/07/13 01:51:30;;;;;;;4.63;2.20;;;;;;;14.54;85.49;101261.25;5036476;28;20069;-76
2023/07/13 01:53:56;;;;;;;4.57;2.13;;;;;;;14.53;85.65;101262.22;5029202;28;20029;-69
2023/07/13 01:56:21;;;;;;;6.38;2.40;;;;;;;14.52;85.91;101264.03;5036274;28;20037;-74
2023/07/13 01:58:47;;;;;;;4.47;2.30;;;;;;;14.51;86.49;101261.44;5049264;28;20128;-78
2023/07/13 02:01:13;;;;;;;6.40;2.58;;;;;;;14.48;86.19;101269.63;5029617;28;20087;-75
2023/07/13 02:03:39;;;;;;;7.90;2.65;;;;;;;14.47;86.97;101271.47;5029664;28;20075;-75
2023/07/13 02:06:04;;;;;;;7.32;2.83;;;;;;;14.44;87.47;101267.13;5032818;28;20044;-72
2023/07/13 02:08:31;;;;;;;7.38;2.67;;;;;;;14.42;87.28;101284.22;5024636;28;20033;-73
2023/07/13 02:10:57;;;;;;;6.30;2.53;;;;;;;14.41;86.96;101279.84;5033660;28;20523;-75
2023/07/13 02:13:22;;;;;;;7.65;2.28;;;;;;;14.36;87.97;101280.13;5032144;28;20026;-80
2023/07/13 02:15:50;;;;;;;7.30;2.60;;;;;;;14.37;87.80;101284.50;5026571;28;20156;-71
2023/07/13 02:18:16;;;;;;;5.65;2.60;;;;;;;14.35;88.18;101278.41;5029895;28;20029;-71
2023/07/13 02:20:42;;;;;;;6.15;2.60;;;;;;;14.29;88.09;101280.56;5034549;28;20323;-76
2023/07/13 02:23:08;;;;;;;5.22;2.38;;;;;;;14.29;88.90;101286.78;5030867;28;20029;-77
2023/07/13 02:25:33;;;;;;;9.98;2.65;;;;;;;14.26;88.80;101287.00;5035735;28;20357;-76
2023/07/13 02:27:59;;;;;;;5.53;2.60;;;;;;;14.26;89.12;101268.25;5028532;28;20032;-72
2023/07/13 02:30:24;;;;;;;6.90;3.00;;;;;;;14.23;89.32;101270.25;5037522;28;20112;-74
2023/07/13 02:32:50;;;;;;;6.57;2.50;;;;;;;14.24;89.80;101280.84;5053000;28;20034;-72
2023/07/13 02:35:16;;;;;;;6.65;2.83;;;;;;;14.25;90.41;101276.34;5034288;28;20025;-73
2023/07/13 02:37:41;;;;;;;6.20;2.70;;;;;;;14.18;90.58;101275.88;5036689;28;20029;-77
2023/07/13 02:40:08;;;;;;;5.75;2.95;;;;;;;14.17;91.16;101285.72;5035596;28;20069;-69
2023/07/13 02:42:34;;;;;;;7.30;2.60;;;;;;;14.14;91.34;101275.19;5032703;28;20487;-77
2023/07/13 02:45:00;;;;;;;7.00;3.08;;;;;;;14.12;91.39;101277.06;5035576;28;20035;-77
2023/07/13 02:47:26;;;;;;;6.90;2.95;;;;;;;14.07;91.80;101273.81;5028888;28;20779;-72
2023/07/13 02:49:52;;;;;;;7.63;2.83;;;;;;;14.07;91.71;101273.81;5029705;28;20086;-74
2023/07/13 02:52:17;;;;;;;5.13;2.38;;;;;;;14.05;92.03;101281.09;5039260;28;20037;-74
2023/07/13 02:54:43;;;;;;;6.22;2.80;;;;;;;14.03;92.25;101279.44;5028874;28;20782;-74
2023/07/13 02:57:08;;;;;;;6.97;2.70;;;;;;;14.00;92.59;101276.94;5026842;28;20386;-74
2023/07/13 02:59:33;;;;;;;9.63;2.80;;;;;;;14.01;92.91;101274.19;5038185;28;20029;-72
2023/07/13 03:02:01;;;;;;;8.20;2.90;;;;;;;13.97;93.52;101279.81;5040128;28;20029;-69
2023/07/13 03:04:27;;;;;;;5.35;2.90;;;;;;;13.95;93.74;101278.06;5033608;28;20021;-75
2023/07/13 03:06:52;;;;;;;8.25;3.20;;;;;;;13.93;94.14;101276.44;5031520;28;20100;-70
2023/07/13 03:09:18;;;;;;;6.35;3.35;;;;;;;13.88;94.40;101282.06;5029162;28;20513;-69
2023/07/13 03:11:43;;;;;;;9.02;3.00;;;;;;;13.90;94.77;101285.50;5027957;28;20033;-72
2023/07/13 03:14:09;;;;;;;7.95;2.88;;;;;;;13.87;94.78;101276.78;5037605;28;20029;-71
2023/07/13 03:16:34;;;;;;;7.57;3.28;;;;;;;13.88;94.96;101282.06;5036500;28;20092;-73
2023/07/13 03:19:00;;;;;;;7.22;3.13;;;;;;;13.89;94.96;101277.56;5036510;28;20033;-67
2023/07/13 03:21:25;;;;;;;9.02;3.05;;;;;;;13.86;95.36;101291.13;5034595;28;20033;-71
2023/07/13 03:23:51;;;;;;;4.93;2.53;;;;;;;13.89;95.39;101277.56;5036387;28;20075;-73
2023/07/13 03:26:18;;;;;;;6.10;2.95;;;;;;;13.83;95.78;101286.78;5035706;28;20031;-73
2023/07/13 03:28:44;;;;;;;7.55;3.25;;;;;;;13.79;96.29;101284.38;5037537;28;20126;-76
2023/07/13 03:31:16;;;;;;;5.70;2.97;;;;;;;13.79;96.63;101290.59;5037410;28;20550;-71
2023/07/13 03:33:42;;;;;;;6.57;3.00;;;;;;;13.77;96.32;101303.22;5035795;28;20083;-74
2023/07/13 03:36:16;;;;;;;8.88;3.10;;;;;;;13.80;96.94;101297.69;5035288;28;20562;-73
2023/07/13 03:38:41;;;;;;;7.13;2.75;;;;;;;13.74;97.29;101298.03;5041369;28;20232;-73
2023/07/13 03:41:07;;;;;;;6.25;3.33;;;;;;;13.73;97.72;101301.66;5042403;28;20036;-77
2023/07/13 03:43:32;;;;;;;5.82;3.28;;;;;;;13.71;97.63;101311.59;5040484;28;20025;-77
2023/07/13 03:45:58;;;;;;;11.30;3.80;;;;;;;13.71;97.75;101298.22;5026246;28;20034;-74
2023/07/13 03:48:23;;;;;;;10.52;3.60;;;;;;;13.73;98.15;101311.50;5029031;28;20025;-76
2023/07/13 03:50:49;;;;;;;9.90;2.80;;;;;;;13.70;98.07;101312.53;5041798;28;20043;-68
2023/07/13 03:53:15;;;;;;;5.72;3.20;;;;;;;13.73;98.03;101308.81;5040984;28;20120;-76
2023/07/13 03:55:40;;;;;;;8.93;3.50;;;;;;;13.73;98.26;101308.81;5037333;28;20299;-75
2023/07/13 03:58:30;;;;;;;7.55;3.47;;;;;;;13.71;98.24;101316.94;5039715;28;20022;-74
2023/07/13 04:00:57;;;;;;;8.35;3.40;;;;;;;13.72;98.77;101317.81;5036093;28;20487;-74
2023/07/13 04:03:23;;;;;;;8.95;3.78;;;;;;;13.73;98.84;101308.81;5032821;28;20029;-79
2023/07/13 04:05:48;;;;;;;7.82;3.90;;;;;;;13.73;99.23;101315.03;5041102;28;20491;-72
2023/07/13 04:08:14;;;;;;;9.32;4.07;;;;;;;13.71;99.18;101311.59;5041361;28;20033;-79
2023/07/13 04:10:39;;;;;;;7.80;3.85;;;;;;;13.75;99.44;101326.50;5036994;28;20614;-72
2023/07/13 04:13:05;;;;;;;10.77;4.20;;;;;;;13.77;99.64;101327.28;5036883;28;20037;-77
2023/07/13 04:15:32;;;;;;;9.90;4.03;;;;;;;13.79;99.67;101324.50;5030250;28;20117;-68
2023/07/13 04:17:58;;;;;;;8.82;4.25;;;;;;;13.79;100.00;101322.69;5031182;28;20041;-78
2023/07/13 04:20:25;;;;;;;9.82;4.90;;;;;;;13.84;100.00;101327.81;5033248;28;20040;-71
2023/07/13 04:22:53;;;;;;;13.85;4.72;;;;;;;13.87;100.00;101327.63;5043012;28;20404;-67
2023/07/13 04:25:19;;;;;;;10.95;4.80;;;;;;;14.00;99.94;101333.13;5033853;28;20108;-73
2023/07/13 04:27:44;;;;;;;11.60;4.60;;;;;;;14.04;100.00;101332.00;5031368;28;20133;-74
2023/07/13 04:30:10;;;;;;;11.77;5.28;;;;;;;14.06;100.00;101335.47;5042434;28;20037;-74
2023/07/13 04:32:35;;;;;;;9.20;5.00;;;;;;;14.07;100.00;101342.53;5025218;28;20029;-76
2023/07/13 04:35:00;;;;;;;11.38;4.80;;;;;;;14.16;99.95;101339.31;5035298;28;20028;-77
2023/07/13 04:37:26;;;;;;;15.10;5.28;;;;;;;14.23;100.00;101340.72;5048743;28;20087;-76
2023/07/13 04:39:52;;;;;;;17.30;5.93;;;;;;;14.31;100.00;101338.44;5042008;28;20067;-73
2023/07/13 04:42:18;;;;;;;13.45;5.57;;;;;;;14.40;99.57;101337.03;5035432;28;20487;-73
2023/07/13 04:44:52;;;;;;;12.68;5.82;;;;;;;14.52;99.43;101347.06;5039884;28;20105;-76
2023/07/13 04:47:18;;;;;;;14.18;6.00;;;;;;;14.55;99.39;101338.00;5037843;28;20124;-79
2023/07/13 04:49:45;;;;;;;17.25;7.07;;;;;;;14.61;98.25;101345.66;5029155;28;20544;-78
2023/07/13 04:52:11;;;;;;;14.23;6.40;;;;;;;14.74;99.04;101352.00;5038633;28;20029;-74
2023/07/13 04:54:37;;;;;;;14.75;6.70;;;;;;;14.82;98.05;101349.72;5029104;28;20041;-76
2023/07/13 04:57:06;;;;;;;12.10;5.95;;;;;;;14.86;97.75;101342.34;5038396;28;20556;-72
2023/07/13 04:59:35;;;;;;;14.02;6.38;;;;;;;14.86;97.57;101356.63;5039283;28;20036;-78
2023/07/13 05:02:01;;;;;;;15.38;6.82;;;;;;;14.86;98.37;101345.03;5032506;28;20176;-74
2023/07/13 05:04:27;;;;;;;16.70;7.38;;;;;;;14.85;98.34;101348.69;5040174;28;20494;-70
2023/07/13 05:06:53;;;;;;;13.68;7.53;;;;;;;14.89;98.95;101361.78;5034909;28;20026;-77
2023/07/13 05:09:18;;;;;;;14.10;6.88;;;;;;;14.97;98.87;101355.97;5035317;28;20030;-79
2023/07/13 05:11:44;;;;;;;20.00;8.73;;;;;;;15.06;98.96;101365.28;5024972;28;20028;-72
2023/07/13 05:14:09;;;;;;;17.58;7.68;;;;;;;15.12;98.02;101354.16;5039108;28;20281;-75
2023/07/13 05:16:35;;;;;;;19.67;8.38;;;;;;;15.13;98.03;101361.22;5039177;28;20403;-74
2023/07/13 05:19:01;;;;;;;13.13;7.32;;;;;;;15.18;97.64;101361.84;5033775;28;20025;-77
2023/07/13 05:21:26;;;;;;;18.80;7.82;;;;;;;15.26;97.93;101372.06;5031161;28;20033;-78
2023/07/13 05:23:52;;;;;;;17.50;7.65;;;;;;;15.28;98.85;101376.38;5024044;28;20379;-69
2023/07/13 05:26:17;;;;;;;18.60;8.75;;;;;;;15.42;98.17;101375.50;5034081;28;20506;-77
2023/07/13 05:28:43;;;;;;;19.65;8.98;;;;;;;15.52;97.90;101371.31;5024263;28;20025;-71
2023/07/13 05:31:10;;;;;;;16.65;7.57;;;;;;;15.61;97.59;101372.53;5022299;28;20423;-75
2023/07/13 05:33:35;;;;;;;18.02;8.05;;;;;;;15.76;96.60;101379.66;5033027;28;20068;-69
2023/07/13 05:36:01;;;;;;;18.08;7.93;;;;;;;15.84;95.77;101381.84;5037719;28;20106;-74
2023/07/13 05:38:27;;;;;;;21.48;8.95;;;;;;;15.96;95.04;101385.56;5039344;28;20025;-72
2023/07/13 05:40:55;;;;;;;16.42;7.60;;;;;;;16.01;95.03;101383.41;5023411;28;20123;-77
2023/07/13 05:43:20;;;;;;;16.50;7.85;;;;;;;16.03;94.92;101376.16;5035017;28;20475;-72
2023/07/13 05:45:46;;;;;;;20.15;8.10;;;;;;;15.97;94.15;101377.41;5035752;28;20070;-76
2023/07/13 05:48:11;;;;;;;15.70;6.90;;;;;;;15.97;94.35;101384.59;5037455;28;20431;-76
2023/07/13 05:50:37;;;;;;;17.80;7.82;;;;;;;15.94;94.49;101386.53;5038742;28;20021;-74
2023/07/13 05:53:02;;;;;;;17.70;7.30;;;;;;;15.98;94.70;101386.34;5038159;28;20127;-70
2023/07/13 05:55:28;;;;;;;14.07;7.10;;;;;;;15.99;94.87;101385.38;5030200;28;20078;-78
2023/07/13 05:57:53;;;;;;;14.93;6.88;;;;;;;15.96;94.03;101390.91;5036291;28;20502;-71
2023/07/13 06:00:19;;;;;;;14.85;7.28;;;;;;;15.99;94.05;101398.78;5029216;28;20028;-76
2023/07/13 06:02:45;;;;;;;14.77;7.28;;;;;;;16.04;93.30;101392.16;5026089;28;20029;-79
2023/07/13 06:05:10;;;;;;;14.80;7.35;;;;;;;16.05;93.14;101403.75;5028635;28;20029;-72
2023/07/13 06:07:36;;;;;;;12.77;6.65;;;;;;;16.09;93.81;101400.78;5035110;28;20063;-72
2023/07/13 06:10:01;;;;;;;17.92;8.00;;;;;;;16.22;93.83;101405.31;5034542;28;20487;-71
2023/07/13 06:12:27;;;;;;;18.10;8.27;;;;;;;16.31;92.46;101410.97;5033309;28;20063;-75
2023/07/13 06:14:53;;;;;;;15.20;8.98;;;;;;;16.36;92.03;101413.34;5038537;28;20033;-68
2023/07/13 06:17:18;;;;;;;15.93;7.75;;;;;;;16.42;91.81;101412.94;5035552;28;20060;-71
2023/07/13 06:19:44;;;;;;;16.45;8.15;;;;;;;16.35;91.77;101417.88;5031192;28;20021;-79
2023/07/13 06:22:09;;;;;;;15.07;7.90;;;;;;;16.46;92.22;101418.97;5037613;28;20128;-75
2023/07/13 06:24:35;;;;;;;18.48;9.10;;;;;;;16.47;91.68;101404.56;5037206;28;20024;-75
2023/07/13 06:27:00;;;;;;;18.88;8.45;;;;;;;16.49;90.85;101414.25;5034301;28;20483;-79
2023/07/13 06:29:26;;;;;;;16.20;8.32;;;;;;;16.56;90.76;101414.72;5034660;28;20037;-70
2023/07/13 06:31:51;;;;;;;16.55;8.38;;;;;;;16.64;90.20;101423.13;5037249;28;20494;-78
2023/07/13 06:34:17;;;;;;;17.15;7.60;;;;;;;16.68;90.30;101416.59;5037079;28;20089;-77
2023/07/13 06:36:43;;;;;;;13.82;8.25;;;;;;;16.70;89.05;101422.72;5033593;28;20207;-69
2023/07/13 06:39:08;;;;;;;15.23;8.35;;;;;;;16.58;89.48;101420.84;5038782;28;20082;-78
2023/07/13 06:41:34;;;;;;;17.33;8.85;;;;;;;16.59;89.98;101425.25;5038280;28;20078;-69
2023/07/13 06:43:59;;;;;;;21.10;9.48;;;;;;;16.54;90.30;101432.75;5032267;28;20259;-74
2023/07/13 06:46:25;;;;;;;18.38;9.75;;;;;;;16.51;91.67;101430.28;5032147;28;20392;-73
2023/07/13 06:48:51;;;;;;;16.88;8.77;;;;;;;16.58;90.41;101436.97;5032301;28;20029;-71
2023/07/13 06:51:17;;;;;;;20.08;9.23;;;;;;;16.60;91.03;101427.84;5022307;28;20535;-75
2023/07/13 06:53:45;;;;;;;15.82;8.45;;;;;;;16.60;91.16;101432.38;5033444;28;20856;-71
2023/07/13 06:56:11;;;;;;;13.23;8.10;;;;;;;16.65;90.72;101443.66;5033720;28;20029;-74
2023/07/13 06:58:37;;;;;;;18.88;8.80;;;;;;;16.69;90.95;101434.44;5033981;28;20398;-70
2023/07/13 07:01:03;;;;;;;25.08;9.48;;;;;;;16.87;89.95;101445.81;5028427;28;20029;-73
2023/07/13 07:03:29;;;;;;;18.10;8.70;;;;;;;17.08;88.99;101441.63;5028265;28;20067;-71
2023/07/13 07:06:00;;;;;;;26.30;9.50;;;;;;;17.19;87.62;101451.69;5034152;28;20730;-71
2023/07/13 07:08:25;;;;;;;21.08;8.63;;;;;;;17.29;88.02;101439.28;5022593;28;20488;-68
2023/07/13 07:10:53;;;;;;;17.23;8.65;;;;;;;17.41;87.29;101443.81;5034682;28;20133;-71
2023/07/13 07:13:19;;;;;;;40.00;10.32;;;;;;;17.36;86.47;101439.75;5031821;28;20361;-72
2023/07/13 07:15:45;;;;;;;24.05;8.02;;;;;;;17.35;86.52;101438.03;5026381;28;20522;-69
2023/07/13 07:18:10;;;;;;;16.48;8.35;;;;;;;17.38;87.00;101449.41;5033197;28;20067;-71
2023/07/13 07:20:36;;;;;;;24.98;8.38;;;;;;;17.46;85.48;101443.50;5032727;28;20041;-74
2023/07/13 07:23:01;;;;;;;15.32;7.68;;;;;;;17.42;85.73;101447.38;5032235;28;20057;-69
2023/07/13 07:25:27;;;;;;;19.77;8.52;;;;;;;17.35;86.55;101455.03;5047438;28;20033;-75
2023/07/13 07:27:55;;;;;;;18.13;8.18;;;;;;;17.49;86.70;101450.50;5023006;28;20052;-68
2023/07/13 07:30:21;;;;;;;12.38;6.90;;;;;;;17.72;85.67;101452.41;5032129;28;20088;-67
2023/07/13 07:32:46;;;;;;;14.85;7.50;;;;;;;17.95;83.89;101444.56;5038065;28;20029;-70
2023/07/13 07:35:11;;;;;;;15.38;7.88;;;;;;;18.05;82.49;101438.38;5033515;28;20081;-72
2023/07/13 07:37:37;;;;;;;13.95;7.22;;;;;;;18.16;82.75;101443.00;5034949;28;20021;-67
2023/07/13 07:40:03;;;;;;;17.73;7.38;;;;;;;18.38;82.57;101447.66;5028534;28;20032;-69
2023/07/13 07:42:29;;;;;;;17.33;6.93;;;;;;;18.67;81.30;101448.19;5032918;28;20543;-69
2023/07/13 07:44:54;;;;;;;14.00;7.38;;;;;;;18.71;79.83;101452.41;5033690;28;20028;-72
2023/07/13 07:47:19;;;;;;;13.48;7.50;;;;;;;18.72;80.17;101459.50;5035677;28;20076;-74
2023/07/13 07:49:45;;;;;;;13.95;6.90;;;;;;;19.00;78.87;101450.19;5037653;28;20056;-69
2023/07/13 07:52:10;;;;;;;12.98;6.47;;;;;;;19.33;76.58;101468.31;5039913;28;20211;-71
2023/07/13 07:54:36;;;;;;;12.70;6.68;;;;;;;19.12;75.90;101461.88;5038953;28;20040;-67
2023/07/13 07:57:01;;;;;;;12.45;5.97;;;;;;;19.42;75.60;101459.50;5038324;28;20040;-71
2023/07/13 07:59:26;;;;;;;15.95;6.53;;;;;;;19.68;74.98;101451.19;5036024;28;20033;-71
2023/07/13 08:01:52;;;;;;;13.32;5.95;;;;;;;19.90;73.32;101466.56;5035810;28;20070;-68
2023/07/13 08:04:17;;;;;;;12.48;5.65;;;;;;;20.60;70.24;101465.34;5030573;28;20030;-68
2023/07/13 08:06:43;;;;;;;12.70;5.40;;;;;;;21.46;67.65;101461.66;5039192;28;20017;-70
2023/07/13 08:09:08;;;;;;;11.13;4.93;;;;;;;22.21;64.42;101454.16;5034298;28;20387;-68
2023/07/13 08:11:34;;;;;;;15.32;4.93;;;;;;;22.95;60.59;101462.72;5033296;28;20549;-70
2023/07/13 08:14:00;;;;;;;10.15;4.53;;;;;;;23.38;57.92;101464.06;5029106;28;20029;-74
2023/07/13 08:16:26;;;;;;;8.93;4.03;;;;;;;23.91;57.36;101457.19;5035126;28;20029;-68
2023/07/13 08:18:51;;;;;;;8.48;4.57;;;;;;;23.34;57.22;101463.50;5037396;28;20044;-72
2023/07/13 08:21:19;;;;;;;7.40;3.55;;;;;;;22.67;58.04;101458.94;5037608;28;20032;-68
2023/07/13 08:23:45;;;;;;;12.32;4.28;;;;;;;23.56;57.56;101456.88;5040726;28;20107;-72
2023/07/13 08:26:10;;;;;;;9.90;4.20;;;;;;;24.75;54.02;101454.28;5043719;28;20108;-74
2023/07/13 08:28:36;;;;;;;11.95;3.83;;;;;;;24.77;53.60;101461.28;5037181;28;20083;-73
2023/07/13 08:31:07;;;;;;;7.40;3.70;;;;;;;24.62;52.47;101467.41;5042640;28;20083;-72
2023/07/13 08:33:34;;;;;;;8.00;3.58;;;;;;;23.32;54.25;101473.66;5036621;28;20102;-71
2023/07/13 08:35:59;;;;;;;9.43;3.95;;;;;;;23.15;56.31;101470.81;5030518;28;20087;-71
2023/07/13 08:38:25;;;;;;;7.82;3.75;;;;;;;22.71;55.62;101471.22;5036708;28;20025;-72
2023/07/13 08:40:56;;;;;;;7.95;3.70;;;;;;;22.70;56.45;101474.94;5041072;28;20403;-69
2023/07/13 08:43:35;;;;;;;6.72;3.33;;;;;;;22.52;57.68;101473.91;5033680;28;20040;-71
2023/07/13 08:46:35;;;;;;;7.03;4.22;;;;;;;22.32;59.02;101471.19;5035154;28;20242;-73
2023/07/13 08:49:16;;;;;;;8.50;3.38;;;;;;;22.52;58.26;101469.34;5005902;28;20157;-69
2023/07/13 08:51:44;;;;;;;8.38;3.40;;;;;;;23.55;54.98;101460.59;5033270;28;20022;-70
2023/07/13 08:54:34;;;;;;;7.57;3.50;;;;;;;24.78;50.58;101456.69;5033671;28;20029;-69
2023/07/13 08:57:03;;;;;;;7.93;3.50;;;;;;;25.67;48.92;101462.00;5032435;28;20124;-72
2023/07/13 08:59:33;;;;;;;5.40;2.90;;;;;;;25.24;48.38;101458.31;5040174;28;20048;-67
2023/07/13 09:02:21;;;;;;;6.57;3.03;;;;;;;25.73;49.42;101458.63;5031913;28;20040;-69
2023/07/13 09:05:00;;;;;;;6.78;3.08;;;;;;;26.02;46.63;101468.34;5038860;28;20021;-71
2023/07/13 09:07:51;;;;;;;7.65;3.30;;;;;;;25.71;46.20;101459.78;5027684;28;20044;-72
2023/07/13 09:10:25;;;;;;;8.82;3.10;;;;;;;25.63;46.93;101459.78;5060830;28;20021;-73
2023/07/13 09:13:15;;;;;;;5.32;2.53;;;;;;;26.40;45.14;101466.09;5038744;28;20042;-67
2023/07/13 09:15:44;;;;;;;6.85;2.80;;;;;;;25.71;45.92;101459.78;5035093;28;20033;-71
2023/07/13 09:18:23;;;;;;;5.93;2.63;;;;;;;26.16;46.98;101461.41;5052047;28;20488;-70
2023/07/13 09:20:52;;;;;;;5.03;2.85;;;;;;;27.66;42.88;101473.00;5037691;28;20128;-72
2023/07/13 09:23:21;;;;;;;4.80;2.15;;;;;;;28.35;39.97;101465.09;5039396;28;20114;-70
2023/07/13 09:25:55;;;;;;;4.63;2.30;;;;;;;29.15;39.20;101463.91;5032500;28;20020;-73
2023/07/13 09:28:33;;;;;;;6.63;2.72;;;;;;;29.57;37.83;101465.22;5037039;28;20030;-68
2023/07/13 09:30:58;;;;;;;6.47;2.63;;;;;;;29.56;36.30;101458.03;5038288;28;20061;-74
2023/07/13 09:33:24;;;;;;;7.55;2.83;;;;;;;28.90;37.42;101464.06;5037035;28;20597;-71
2023/07/13 09:35:50;;;;;;;7.43;3.00;;;;;;;29.04;37.48;101468.75;5050146;28;20029;-68
2023/07/13 09:38:18;;;;;;;5.63;2.70;;;;;;;28.56;37.44;101463.63;5048331;28;20520;-72
2023/07/13 09:40:49;;;;;;;6.35;2.72;;;;;;;27.33;40.93;101477.69;5033157;28;20014;-70
2023/07/13 09:43:17;;;;;;;4.78;2.50;;;;;;;27.39;40.77;101463.34;5034906;28;20033;-68
2023/07/13 09:45:45;;;;;;;6.50;2.38;;;;;;;26.05;43.56;101468.03;5035230;28;20127;-71
2023/07/13 09:48:13;;;;;;;6.75;2.58;;;;;;;25.04;46.06;101467.63;5040045;28;20116;-71
2023/07/13 09:50:39;;;;;;;7.13;2.88;;;;;;;24.32;48.21;101473.00;5035532;28;20492;-71
2023/07/13 09:53:11;;;;;;;6.28;2.97;;;;;;;23.64;49.01;101475.16;5043130;28;20025;-70
2023/07/13 09:55:40;;;;;;;7.10;2.95;;;;;;;23.18;50.79;101475.97;5028960;28;20037;-69
2023/07/13 09:58:23;;;;;;;6.57;2.90;;;;;;;23.19;51.32;101472.25;5040985;28;20382;-68
2023/07/13 10:00:59;;;;;;;;;;;;;;;23.84;50.14;101476.00;5039662;28;20041;-72
2023/07/13 10:03:39;;;;;;;6.00;2.75;;;;;;;26.27;45.79;101461.97;5035438;28;20003;-72
2023/07/13 10:06:14;;;;;;;7.95;2.58;;;;;;;27.06;44.44;101471.50;5026496;28;20041;-71
2023/07/13 10:08:40;;;;;;;5.25;2.50;;;;;;;27.90;42.07;101471.28;5033224;28;20081;-70
2023/07/13 10:11:12;;;;;;;6.18;2.60;;;;;;;29.03;39.08;101466.22;5035415;28;20034;-73
2023/07/13 10:13:48;;;;;;;5.95;2.25;;;;;;;30.43;36.64;101471.91;5021708;28;20055;-73
2023/07/13 10:16:15;;;;;;;5.10;2.15;;;;;;;31.35;34.91;101471.16;5023820;28;20432;-69
2023/07/13 10:18:48;;;;;;;6.53;2.55;;;;;;;29.91;35.81;101472.91;5023723;28;20029;-73
2023/07/13 10:21:20;;;;;;;5.30;2.50;;;;;;;28.64;38.13;101475.38;5030896;28;20071;-72
2023/07/13 10:23:51;;;;;;;5.25;2.03;;;;;;;28.02;38.96;101475.34;5038053;28;20349;-67
2023/07/13 10:26:23;;;;;;;5.72;2.38;;;;;;;28.47;38.44;101479.25;5023390;28;20025;-72
2023/07/13 10:28:55;;;;;;;6.37;2.50;;;;;;;30.00;36.81;101471.75;5032724;28;20030;-67
2023/07/13 10:31:21;;;;;;;6.05;2.00;;;;;;;30.51;33.50;101472.63;5032317;28;20797;-72
2023/07/13 10:33:46;;;;;;;6.63;2.63;;;;;;;30.24;33.49;101462.38;5022617;28;20059;-72
2023/07/13 10:36:34;;;;;;;6.82;2.03;;;;;;;29.17;35.15;101468.13;5022899;28;20112;-68
2023/07/13 10:39:03;;;;;;;6.40;2.40;;;;;;;28.23;37.20;101480.19;5036635;28;20053;-71
2023/07/13 10:41:31;;;;;;;6.60;2.13;;;;;;;27.06;39.73;101485.19;5037276;28;20065;-72
2023/07/13 10:43:58;;;;;;;5.10;2.25;;;;;;;26.15;41.26;101479.66;5031250;28;20029;-74
2023/07/13 10:46:28;;;;;;;4.38;1.75;;;;;;;25.71;42.53;101477.03;5039142;28;20084;-67
2023/07/13 10:49:01;;;;;;;3.67;1.90;;;;;;;25.63;43.01;101476.97;5029071;28;20485;-68
2023/07/13 10:51:28;;;;;;;6.53;2.40;;;;;;;25.43;44.03;101478.22;5029637;28;20025;-73
2023/07/13 10:54:17;;;;;;;6.68;2.28;;;;;;;24.94;44.94;101481.34;5042551;28;20036;-67
2023/07/13 10:56:44;;;;;;;5.57;2.00;;;;;;;24.24;46.82;101485.66;5036344;28;20359;-75
2023/07/13 10:59:17;;;;;;;8.05;2.45;;;;;;;23.56;55.60;101492.19;5033634;28;20268;-72
2023/07/13 11:02:10;;;;;;;5.93;2.50;;;;;;;22.72;55.14;101491.94;5036798;28;20054;-70
2023/07/13 11:04:57;;;;;;;6.03;2.40;;;;;;;22.88;54.02;101499.53;5035563;28;20028;-71
2023/07/13 11:07:27;;;;;;;5.75;2.30;;;;;;;23.16;53.71;101505.09;5028026;28;20103;-70
2023/07/13 11:09:55;;;;;;;6.82;2.70;;;;;;;24.25;51.75;101492.84;5029069;28;20072;-72
2023/07/13 11:12:47;;;;;;;7.32;2.30;;;;;;;25.31;49.90;101491.22;5026951;28;20560;-73
2023/07/13 11:15:12;;;;;;;4.97;2.38;;;;;;;25.65;47.27;101491.28;5035012;28;20115;-71
2023/07/13 11:18:00;;;;;;;5.05;2.33;;;;;;;26.06;45.08;101477.91;5026438;28;20108;-71
2023/07/13 11:20:39;;;;;;;6.25;2.50;;;;;;;25.45;45.66;101476.16;5031692;28;20025;-75
2023/07/13 11:23:16;;;;;;;3.90;2.08;;;;;;;24.86;46.37;101484.00;5022275;28;20148;-71
2023/07/13 11:25:42;;;;;;;6.57;2.58;;;;;;;24.23;52.88;101492.97;5031812;28;20037;-71